Crater Lake, Oregon
Current Conditions -  °F | °C
As of 9:53 AM on Friday 21 Nov 2014 (Local Time) from KLMT Reporting Station
Light Fog Light Fog  
Wind Chill:   Ceiling: 9500
Heat Index:   Visibility: 10mi
Dew Point:   Wind: 3mph
Humidity: 86%   Direction: 120°ESE
Pressure: 30"   Gusts: NA
Location:  42.58°N, 121.86°W
Report Text: KLMT 211753Z 12003KT 10SM BCFG FEW035 OVC095 02/00 A3000 RMK AO2 SLP163 T00220000 10022 21006 58002
Loading
Personal Weather Stations






























Interactive Weather Map New forecast layout! Learn more

10-Day Weather Forecast

Advertisements
Track Severe Weather on mobile